sensor_id;sensor_type;location;lat;lon;timestamp;P1;durP1;ratioP1;P2;durP2;ratioP2
8399;SDS011;4237;47.030;15.396;2023-08-08T00:00:33;0.50;;;0.50;;
8399;SDS011;4237;47.030;15.396;2023-08-08T00:03:01;0.90;;;0.50;;
8399;SDS011;4237;47.030;15.396;2023-08-08T00:07:57;2.20;;;0.50;;
8399;SDS011;4237;47.030;15.396;2023-08-08T00:12:52;0.90;;;0.70;;
8399;SDS011;4237;47.030;15.396;2023-08-08T00:15:20;0.90;;;0.60;;
8399;SDS011;4237;47.030;15.396;2023-08-08T00:17:49;0.90;;;0.60;;
8399;SDS011;4237;47.030;15.396;2023-08-08T00:20:17;0.85;;;0.75;;
8399;SDS011;4237;47.030;15.396;2023-08-08T00:22:45;0.60;;;0.60;;
8399;SDS011;4237;47.030;15.396;2023-08-08T00:25:13;0.80;;;0.60;;
8399;SDS011;4237;47.030;15.396;2023-08-08T00:32:38;0.50;;;0.40;;
8399;SDS011;4237;47.030;15.396;2023-08-08T00:35:06;0.40;;;0.40;;
8399;SDS011;4237;47.030;15.396;2023-08-08T00:37:34;0.80;;;0.60;;
8399;SDS011;4237;47.030;15.396;2023-08-08T00:40:03;0.37;;;0.30;;
8399;SDS011;4237;47.030;15.396;2023-08-08T00:42:31;0.73;;;0.60;;
8399;SDS011;4237;47.030;15.396;2023-08-08T00:44:59;0.50;;;0.50;;
8399;SDS011;4237;47.030;15.396;2023-08-08T00:47:30;0.80;;;0.47;;
8399;SDS011;4237;47.030;15.396;2023-08-08T00:49:58;0.70;;;0.70;;
8399;SDS011;4237;47.030;15.396;2023-08-08T00:52:27;0.80;;;0.57;;
8399;SDS011;4237;47.030;15.396;2023-08-08T00:54:56;2.00;;;0.80;;
8399;SDS011;4237;47.030;15.396;2023-08-08T00:57:24;2.80;;;0.60;;
8399;SDS011;4237;47.030;15.396;2023-08-08T00:59:52;1.23;;;0.57;;
8399;SDS011;4237;47.030;15.396;2023-08-08T01:02:21;0.23;;;0.23;;
8399;SDS011;4237;47.030;15.396;2023-08-08T01:04:49;1.80;;;0.63;;
8399;SDS011;4237;47.030;15.396;2023-08-08T01:07:25;2.73;;;1.00;;
8399;SDS011;4237;47.030;15.396;2023-08-08T01:09:57;0.85;;;0.60;;
8399;SDS011;4237;47.030;15.396;2023-08-08T01:12:27;0.97;;;0.60;;
8399;SDS011;4237;47.030;15.396;2023-08-08T01:14:55;1.57;;;0.60;;
8399;SDS011;4237;47.030;15.396;2023-08-08T01:17:24;0.80;;;0.60;;
8399;SDS011;4237;47.030;15.396;2023-08-08T01:19:53;0.80;;;0.63;;
8399;SDS011;4237;47.030;15.396;2023-08-08T01:22:27;0.50;;;0.50;;
8399;SDS011;4237;47.030;15.396;2023-08-08T01:24:52;1.53;;;0.70;;
8399;SDS011;4237;47.030;15.396;2023-08-08T01:27:21;1.10;;;0.90;;
8399;SDS011;4237;47.030;15.396;2023-08-08T01:29:50;4.10;;;0.73;;
8399;SDS011;4237;47.030;15.396;2023-08-08T01:32:18;1.37;;;0.93;;
8399;SDS011;4237;47.030;15.396;2023-08-08T01:34:46;4.47;;;0.90;;
8399;SDS011;4237;47.030;15.396;2023-08-08T01:37:29;1.60;;;0.93;;
8399;SDS011;4237;47.030;15.396;2023-08-08T01:39:51;0.80;;;0.73;;
8399;SDS011;4237;47.030;15.396;2023-08-08T01:42:21;0.90;;;0.67;;
8399;SDS011;4237;47.030;15.396;2023-08-08T01:44:50;0.97;;;0.77;;
8399;SDS011;4237;47.030;15.396;2023-08-08T01:47:20;1.57;;;0.73;;
8399;SDS011;4237;47.030;15.396;2023-08-08T01:49:48;1.10;;;0.80;;
8399;SDS011;4237;47.030;15.396;2023-08-08T01:52:16;1.07;;;0.60;;
8399;SDS011;4237;47.030;15.396;2023-08-08T01:54:45;2.10;;;0.97;;
8399;SDS011;4237;47.030;15.396;2023-08-08T01:57:13;4.23;;;1.17;;
8399;SDS011;4237;47.030;15.396;2023-08-08T01:59:41;1.27;;;0.83;;
8399;SDS011;4237;47.030;15.396;2023-08-08T02:02:09;2.87;;;1.40;;
8399;SDS011;4237;47.030;15.396;2023-08-08T02:04:38;2.73;;;1.20;;
8399;SDS011;4237;47.030;15.396;2023-08-08T02:07:07;2.50;;;1.27;;
8399;SDS011;4237;47.030;15.396;2023-08-08T02:09:35;4.80;;;1.47;;
8399;SDS011;4237;47.030;15.396;2023-08-08T02:12:03;4.00;;;1.20;;
8399;SDS011;4237;47.030;15.396;2023-08-08T02:14:32;3.70;;;1.10;;
8399;SDS011;4237;47.030;15.396;2023-08-08T02:17:00;3.10;;;1.20;;
8399;SDS011;4237;47.030;15.396;2023-08-08T02:19:28;3.20;;;1.40;;
8399;SDS011;4237;47.030;15.396;2023-08-08T02:21:57;3.37;;;1.20;;
8399;SDS011;4237;47.030;15.396;2023-08-08T02:24:25;4.40;;;1.20;;
8399;SDS011;4237;47.030;15.396;2023-08-08T02:26:53;2.45;;;1.20;;
8399;SDS011;4237;47.030;15.396;2023-08-08T02:29:22;2.13;;;0.90;;
8399;SDS011;4237;47.030;15.396;2023-08-08T02:31:50;1.05;;;0.90;;
8399;SDS011;4237;47.030;15.396;2023-08-08T02:34:18;1.87;;;1.10;;
8399;SDS011;4237;47.030;15.396;2023-08-08T02:36:46;2.17;;;0.97;;
8399;SDS011;4237;47.030;15.396;2023-08-08T02:39:15;3.90;;;1.63;;
8399;SDS011;4237;47.030;15.396;2023-08-08T02:44:30;1.17;;;0.90;;
8399;SDS011;4237;47.030;15.396;2023-08-08T02:46:59;1.10;;;0.93;;
8399;SDS011;4237;47.030;15.396;2023-08-08T02:49:27;0.90;;;0.70;;
8399;SDS011;4237;47.030;15.396;2023-08-08T02:51:55;1.37;;;0.77;;
8399;SDS011;4237;47.030;15.396;2023-08-08T02:54:24;3.40;;;1.20;;
8399;SDS011;4237;47.030;15.396;2023-08-08T02:56:52;5.60;;;2.00;;
8399;SDS011;4237;47.030;15.396;2023-08-08T02:59:20;4.45;;;2.95;;
8399;SDS011;4237;47.030;15.396;2023-08-08T03:04:16;1.85;;;1.60;;
8399;SDS011;4237;47.030;15.396;2023-08-08T03:06:44;1.70;;;1.60;;
8399;SDS011;4237;47.030;15.396;2023-08-08T03:09:12;2.30;;;1.30;;
8399;SDS011;4237;47.030;15.396;2023-08-08T03:11:41;1.60;;;0.95;;
8399;SDS011;4237;47.030;15.396;2023-08-08T03:16:36;0.90;;;0.70;;
8399;SDS011;4237;47.030;15.396;2023-08-08T03:19:04;1.35;;;0.80;;
8399;SDS011;4237;47.030;15.396;2023-08-08T03:21:32;1.10;;;0.70;;
8399;SDS011;4237;47.030;15.396;2023-08-08T03:24:01;2.30;;;0.80;;
8399;SDS011;4237;47.030;15.396;2023-08-08T03:26:29;0.60;;;0.60;;
8399;SDS011;4237;47.030;15.396;2023-08-08T03:31:24;0.90;;;0.70;;
8399;SDS011;4237;47.030;15.396;2023-08-08T03:33:54;1.00;;;0.80;;
8399;SDS011;4237;47.030;15.396;2023-08-08T03:36:22;1.53;;;0.70;;
8399;SDS011;4237;47.030;15.396;2023-08-08T03:38:50;1.47;;;0.90;;
8399;SDS011;4237;47.030;15.396;2023-08-08T03:41:18;1.60;;;0.90;;
8399;SDS011;4237;47.030;15.396;2023-08-08T03:43:47;1.95;;;1.10;;
8399;SDS011;4237;47.030;15.396;2023-08-08T03:46:15;1.30;;;1.15;;
8399;SDS011;4237;47.030;15.396;2023-08-08T03:48:43;1.45;;;1.35;;
8399;SDS011;4237;47.030;15.396;2023-08-08T03:51:11;3.00;;;1.00;;
8399;SDS011;4237;47.030;15.396;2023-08-08T03:53:39;2.50;;;0.93;;
8399;SDS011;4237;47.030;15.396;2023-08-08T03:56:07;0.90;;;0.80;;
8399;SDS011;4237;47.030;15.396;2023-08-08T03:58:37;0.77;;;0.70;;
8399;SDS011;4237;47.030;15.396;2023-08-08T04:01:05;2.30;;;1.00;;
8399;SDS011;4237;47.030;15.396;2023-08-08T04:03:34;2.43;;;1.40;;
8399;SDS011;4237;47.030;15.396;2023-08-08T04:06:04;1.25;;;0.95;;
8399;SDS011;4237;47.030;15.396;2023-08-08T04:08:32;1.35;;;0.70;;
8399;SDS011;4237;47.030;15.396;2023-08-08T04:11:00;2.50;;;0.70;;
8399;SDS011;4237;47.030;15.396;2023-08-08T04:13:28;1.40;;;1.00;;
8399;SDS011;4237;47.030;15.396;2023-08-08T04:15:57;4.00;;;1.60;;
8399;SDS011;4237;47.030;15.396;2023-08-08T04:23:20;4.90;;;2.10;;
8399;SDS011;4237;47.030;15.396;2023-08-08T04:31:06;3.20;;;1.60;;
8399;SDS011;4237;47.030;15.396;2023-08-08T04:38:29;5.00;;;1.50;;
8399;SDS011;4237;47.030;15.396;2023-08-08T04:45:52;2.70;;;1.80;;
8399;SDS011;4237;47.030;15.396;2023-08-08T04:48:20;3.30;;;1.70;;
8399;SDS011;4237;47.030;15.396;2023-08-08T04:53:15;3.85;;;1.70;;
8399;SDS011;4237;47.030;15.396;2023-08-08T04:55:44;4.95;;;1.70;;
8399;SDS011;4237;47.030;15.396;2023-08-08T04:58:12;2.90;;;1.40;;
8399;SDS011;4237;47.030;15.396;2023-08-08T05:03:07;3.10;;;1.60;;
8399;SDS011;4237;47.030;15.396;2023-08-08T05:05:35;3.80;;;1.60;;
8399;SDS011;4237;47.030;15.396;2023-08-08T05:10:31;3.40;;;1.70;;
8399;SDS011;4237;47.030;15.396;2023-08-08T05:12:59;2.95;;;1.15;;
8399;SDS011;4237;47.030;15.396;2023-08-08T05:15:27;4.10;;;1.30;;
8399;SDS011;4237;47.030;15.396;2023-08-08T05:17:56;3.95;;;1.30;;
8399;SDS011;4237;47.030;15.396;2023-08-08T05:20:24;4.27;;;1.40;;
8399;SDS011;4237;47.030;15.396;2023-08-08T05:22:53;2.07;;;1.43;;
8399;SDS011;4237;47.030;15.396;2023-08-08T05:25:21;2.97;;;1.30;;
8399;SDS011;4237;47.030;15.396;2023-08-08T05:27:49;2.03;;;1.13;;
8399;SDS011;4237;47.030;15.396;2023-08-08T05:30:17;3.83;;;1.17;;
8399;SDS011;4237;47.030;15.396;2023-08-08T05:32:45;2.33;;;1.40;;
8399;SDS011;4237;47.030;15.396;2023-08-08T05:35:14;4.47;;;1.23;;
8399;SDS011;4237;47.030;15.396;2023-08-08T05:37:42;3.67;;;1.30;;
8399;SDS011;4237;47.030;15.396;2023-08-08T05:40:10;3.23;;;1.17;;
8399;SDS011;4237;47.030;15.396;2023-08-08T05:42:38;3.23;;;1.20;;
8399;SDS011;4237;47.030;15.396;2023-08-08T05:45:07;1.90;;;1.40;;
8399;SDS011;4237;47.030;15.396;2023-08-08T05:47:36;3.17;;;1.33;;
8399;SDS011;4237;47.030;15.396;2023-08-08T05:50:04;1.17;;;0.90;;
8399;SDS011;4237;47.030;15.396;2023-08-08T05:52:32;2.40;;;1.00;;
8399;SDS011;4237;47.030;15.396;2023-08-08T05:55:01;1.00;;;0.90;;
8399;SDS011;4237;47.030;15.396;2023-08-08T05:57:29;1.20;;;1.10;;
8399;SDS011;4237;47.030;15.396;2023-08-08T05:59:57;1.60;;;0.87;;
8399;SDS011;4237;47.030;15.396;2023-08-08T06:02:25;2.30;;;1.47;;
8399;SDS011;4237;47.030;15.396;2023-08-08T06:04:53;3.60;;;1.20;;
8399;SDS011;4237;47.030;15.396;2023-08-08T06:07:21;1.00;;;0.90;;
8399;SDS011;4237;47.030;15.396;2023-08-08T06:09:50;3.10;;;1.10;;
8399;SDS011;4237;47.030;15.396;2023-08-08T06:19:41;2.17;;;0.90;;
8399;SDS011;4237;47.030;15.396;2023-08-08T06:22:09;2.43;;;0.87;;
8399;SDS011;4237;47.030;15.396;2023-08-08T06:24:38;1.20;;;1.10;;
8399;SDS011;4237;47.030;15.396;2023-08-08T06:27:06;1.23;;;0.93;;
8399;SDS011;4237;47.030;15.396;2023-08-08T06:29:34;5.10;;;1.30;;
8399;SDS011;4237;47.030;15.396;2023-08-08T06:32:03;1.93;;;1.10;;
8399;SDS011;4237;47.030;15.396;2023-08-08T06:34:31;3.45;;;1.35;;
8399;SDS011;4237;47.030;15.396;2023-08-08T06:36:59;1.80;;;1.00;;
8399;SDS011;4237;47.030;15.396;2023-08-08T06:39:27;1.42;;;1.02;;
8399;SDS011;4237;47.030;15.396;2023-08-08T06:41:55;2.35;;;0.98;;
8399;SDS011;4237;47.030;15.396;2023-08-08T06:44:24;3.67;;;0.90;;
8399;SDS011;4237;47.030;15.396;2023-08-08T06:46:52;3.40;;;1.15;;
8399;SDS011;4237;47.030;15.396;2023-08-08T06:49:20;2.10;;;1.20;;
8399;SDS011;4237;47.030;15.396;2023-08-08T06:51:48;4.50;;;1.02;;
8399;SDS011;4237;47.030;15.396;2023-08-08T06:54:16;4.03;;;1.40;;
8399;SDS011;4237;47.030;15.396;2023-08-08T06:56:44;4.17;;;1.17;;
8399;SDS011;4237;47.030;15.396;2023-08-08T06:59:13;1.20;;;0.80;;
8399;SDS011;4237;47.030;15.396;2023-08-08T07:01:41;1.72;;;1.17;;
8399;SDS011;4237;47.030;15.396;2023-08-08T07:04:09;1.45;;;1.00;;
8399;SDS011;4237;47.030;15.396;2023-08-08T07:06:37;6.22;;;1.00;;
8399;SDS011;4237;47.030;15.396;2023-08-08T07:09:05;1.25;;;1.00;;
8399;SDS011;4237;47.030;15.396;2023-08-08T07:11:35;2.72;;;1.30;;
8399;SDS011;4237;47.030;15.396;2023-08-08T07:14:04;2.90;;;0.98;;
8399;SDS011;4237;47.030;15.396;2023-08-08T07:16:32;1.20;;;0.90;;
8399;SDS011;4237;47.030;15.396;2023-08-08T07:19:00;1.00;;;0.90;;
8399;SDS011;4237;47.030;15.396;2023-08-08T07:21:28;4.58;;;1.27;;
8399;SDS011;4237;47.030;15.396;2023-08-08T07:23:56;1.30;;;1.02;;
8399;SDS011;4237;47.030;15.396;2023-08-08T07:26:25;1.62;;;1.00;;
8399;SDS011;4237;47.030;15.396;2023-08-08T07:28:53;0.95;;;0.82;;
8399;SDS011;4237;47.030;15.396;2023-08-08T07:31:21;1.77;;;1.12;;
8399;SDS011;4237;47.030;15.396;2023-08-08T07:33:49;3.15;;;0.68;;
8399;SDS011;4237;47.030;15.396;2023-08-08T07:36:17;1.65;;;0.60;;
8399;SDS011;4237;47.030;15.396;2023-08-08T07:38:45;2.37;;;0.90;;
8399;SDS011;4237;47.030;15.396;2023-08-08T07:41:14;2.85;;;1.05;;
8399;SDS011;4237;47.030;15.396;2023-08-08T07:43:42;3.30;;;1.00;;
8399;SDS011;4237;47.030;15.396;2023-08-08T07:46:10;2.10;;;1.00;;
8399;SDS011;4237;47.030;15.396;2023-08-08T07:48:38;1.82;;;1.00;;
8399;SDS011;4237;47.030;15.396;2023-08-08T07:51:07;4.60;;;1.30;;
8399;SDS011;4237;47.030;15.396;2023-08-08T07:53:35;4.30;;;1.27;;
8399;SDS011;4237;47.030;15.396;2023-08-08T07:56:04;1.57;;;1.07;;
8399;SDS011;4237;47.030;15.396;2023-08-08T07:58:32;2.37;;;1.20;;
8399;SDS011;4237;47.030;15.396;2023-08-08T08:01:01;6.55;;;1.17;;
8399;SDS011;4237;47.030;15.396;2023-08-08T08:03:29;2.87;;;1.17;;
8399;SDS011;4237;47.030;15.396;2023-08-08T08:06:02;1.80;;;0.78;;
8399;SDS011;4237;47.030;15.396;2023-08-08T08:08:27;7.28;;;1.22;;
8399;SDS011;4237;47.030;15.396;2023-08-08T08:10:55;4.00;;;0.80;;
8399;SDS011;4237;47.030;15.396;2023-08-08T08:13:23;1.92;;;0.65;;
8399;SDS011;4237;47.030;15.396;2023-08-08T08:15:51;4.50;;;0.68;;
8399;SDS011;4237;47.030;15.396;2023-08-08T08:18:19;4.65;;;1.17;;
8399;SDS011;4237;47.030;15.396;2023-08-08T08:20:48;2.08;;;0.82;;
8399;SDS011;4237;47.030;15.396;2023-08-08T08:23:16;1.92;;;0.60;;
8399;SDS011;4237;47.030;15.396;2023-08-08T08:25:44;2.37;;;0.75;;
8399;SDS011;4237;47.030;15.396;2023-08-08T08:28:13;0.50;;;0.37;;
8399;SDS011;4237;47.030;15.396;2023-08-08T08:30:41;1.35;;;0.42;;
8399;SDS011;4237;47.030;15.396;2023-08-08T08:33:09;1.37;;;0.50;;
8399;SDS011;4237;47.030;15.396;2023-08-08T08:35:37;0.93;;;0.42;;
8399;SDS011;4237;47.030;15.396;2023-08-08T08:38:05;0.95;;;0.60;;
8399;SDS011;4237;47.030;15.396;2023-08-08T08:40:36;1.22;;;0.50;;
8399;SDS011;4237;47.030;15.396;2023-08-08T08:43:04;1.50;;;0.80;;
8399;SDS011;4237;47.030;15.396;2023-08-08T08:45:34;1.75;;;0.47;;
8399;SDS011;4237;47.030;15.396;2023-08-08T08:48:03;0.53;;;0.53;;
8399;SDS011;4237;47.030;15.396;2023-08-08T08:50:31;2.30;;;0.65;;
8399;SDS011;4237;47.030;15.396;2023-08-08T08:53:00;1.45;;;0.70;;
8399;SDS011;4237;47.030;15.396;2023-08-08T08:55:29;0.68;;;0.55;;
8399;SDS011;4237;47.030;15.396;2023-08-08T08:57:57;2.45;;;0.70;;
8399;SDS011;4237;47.030;15.396;2023-08-08T09:00:25;1.55;;;0.60;;
8399;SDS011;4237;47.030;15.396;2023-08-08T09:02:54;0.60;;;0.60;;
8399;SDS011;4237;47.030;15.396;2023-08-08T09:05:22;0.37;;;0.37;;
8399;SDS011;4237;47.030;15.396;2023-08-08T09:07:51;0.60;;;0.40;;
8399;SDS011;4237;47.030;15.396;2023-08-08T09:10:20;2.52;;;0.57;;
8399;SDS011;4237;47.030;15.396;2023-08-08T09:12:48;1.47;;;0.80;;
8399;SDS011;4237;47.030;15.396;2023-08-08T09:15:17;1.42;;;0.55;;
8399;SDS011;4237;47.030;15.396;2023-08-08T09:17:45;2.85;;;0.40;;
8399;SDS011;4237;47.030;15.396;2023-08-08T09:20:14;1.17;;;0.50;;
8399;SDS011;4237;47.030;15.396;2023-08-08T09:22:43;3.22;;;0.57;;
8399;SDS011;4237;47.030;15.396;2023-08-08T09:25:12;0.50;;;0.40;;
8399;SDS011;4237;47.030;15.396;2023-08-08T09:27:40;0.40;;;0.40;;
8399;SDS011;4237;47.030;15.396;2023-08-08T09:30:10;1.12;;;0.60;;
8399;SDS011;4237;47.030;15.396;2023-08-08T09:32:39;3.95;;;0.88;;
8399;SDS011;4237;47.030;15.396;2023-08-08T09:35:07;0.50;;;0.40;;
8399;SDS011;4237;47.030;15.396;2023-08-08T09:37:37;1.22;;;0.70;;
8399;SDS011;4237;47.030;15.396;2023-08-08T09:40:07;0.62;;;0.60;;
8399;SDS011;4237;47.030;15.396;2023-08-08T09:42:36;1.25;;;0.33;;
8399;SDS011;4237;47.030;15.396;2023-08-08T09:45:05;1.87;;;0.70;;
8399;SDS011;4237;47.030;15.396;2023-08-08T09:47:33;0.70;;;0.60;;
8399;SDS011;4237;47.030;15.396;2023-08-08T09:50:02;1.15;;;0.60;;
8399;SDS011;4237;47.030;15.396;2023-08-08T09:52:34;0.93;;;0.70;;
8399;SDS011;4237;47.030;15.396;2023-08-08T09:55:03;1.57;;;0.50;;
8399;SDS011;4237;47.030;15.396;2023-08-08T09:57:32;0.53;;;0.50;;
8399;SDS011;4237;47.030;15.396;2023-08-08T10:00:01;1.32;;;0.85;;
8399;SDS011;4237;47.030;15.396;2023-08-08T10:02:31;0.55;;;0.55;;
8399;SDS011;4237;47.030;15.396;2023-08-08T10:04:59;1.05;;;0.62;;
8399;SDS011;4237;47.030;15.396;2023-08-08T10:07:27;1.20;;;0.45;;
8399;SDS011;4237;47.030;15.396;2023-08-08T10:09:56;0.85;;;0.50;;
8399;SDS011;4237;47.030;15.396;2023-08-08T10:12:25;1.42;;;0.62;;
8399;SDS011;4237;47.030;15.396;2023-08-08T10:14:53;0.72;;;0.60;;
8399;SDS011;4237;47.030;15.396;2023-08-08T10:17:23;1.15;;;0.60;;
8399;SDS011;4237;47.030;15.396;2023-08-08T10:19:54;0.45;;;0.45;;
8399;SDS011;4237;47.030;15.396;2023-08-08T10:22:23;1.40;;;0.47;;
8399;SDS011;4237;47.030;15.396;2023-08-08T10:24:52;0.45;;;0.45;;
8399;SDS011;4237;47.030;15.396;2023-08-08T10:27:27;0.80;;;0.40;;
8399;SDS011;4237;47.030;15.396;2023-08-08T10:30:00;2.90;;;0.53;;
8399;SDS011;4237;47.030;15.396;2023-08-08T10:32:26;0.30;;;0.30;;
8399;SDS011;4237;47.030;15.396;2023-08-08T10:34:55;2.83;;;0.40;;
8399;SDS011;4237;47.030;15.396;2023-08-08T10:37:25;0.50;;;0.50;;
8399;SDS011;4237;47.030;15.396;2023-08-08T10:40:03;0.80;;;0.50;;
8399;SDS011;4237;47.030;15.396;2023-08-08T10:42:25;1.77;;;0.23;;
8399;SDS011;4237;47.030;15.396;2023-08-08T10:44:58;1.37;;;0.57;;
8399;SDS011;4237;47.030;15.396;2023-08-08T10:47:26;0.50;;;0.50;;
8399;SDS011;4237;47.030;15.396;2023-08-08T10:50:07;0.45;;;0.35;;
8399;SDS011;4237;47.030;15.396;2023-08-08T10:55:24;0.35;;;0.25;;
8399;SDS011;4237;47.030;15.396;2023-08-08T10:57:57;1.27;;;0.45;;
8399;SDS011;4237;47.030;15.396;2023-08-08T11:00:31;1.00;;;0.50;;
8399;SDS011;4237;47.030;15.396;2023-08-08T11:02:56;4.17;;;0.60;;
8399;SDS011;4237;47.030;15.396;2023-08-08T11:05:25;0.72;;;0.40;;
8399;SDS011;4237;47.030;15.396;2023-08-08T11:07:55;1.95;;;0.50;;
8399;SDS011;4237;47.030;15.396;2023-08-08T11:10:23;2.17;;;0.33;;
8399;SDS011;4237;47.030;15.396;2023-08-08T11:12:59;1.45;;;0.70;;
8399;SDS011;4237;47.030;15.396;2023-08-08T11:15:23;0.45;;;0.40;;
8399;SDS011;4237;47.030;15.396;2023-08-08T11:17:52;0.35;;;0.33;;
8399;SDS011;4237;47.030;15.396;2023-08-08T11:20:21;0.30;;;0.25;;
8399;SDS011;4237;47.030;15.396;2023-08-08T11:22:55;0.37;;;0.37;;
8399;SDS011;4237;47.030;15.396;2023-08-08T11:25:27;1.00;;;0.42;;
8399;SDS011;4237;47.030;15.396;2023-08-08T11:27:56;0.50;;;0.50;;
8399;SDS011;4237;47.030;15.396;2023-08-08T11:30:34;1.60;;;0.65;;
8399;SDS011;4237;47.030;15.396;2023-08-08T11:32:55;1.22;;;0.65;;
8399;SDS011;4237;47.030;15.396;2023-08-08T11:35:24;0.80;;;0.60;;
8399;SDS011;4237;47.030;15.396;2023-08-08T11:37:53;0.70;;;0.47;;
8399;SDS011;4237;47.030;15.396;2023-08-08T11:40:22;0.62;;;0.53;;
8399;SDS011;4237;47.030;15.396;2023-08-08T11:42:51;0.60;;;0.50;;
8399;SDS011;4237;47.030;15.396;2023-08-08T11:45:20;1.40;;;0.60;;
8399;SDS011;4237;47.030;15.396;2023-08-08T11:47:49;3.37;;;0.70;;
8399;SDS011;4237;47.030;15.396;2023-08-08T11:50:18;1.43;;;0.50;;
8399;SDS011;4237;47.030;15.396;2023-08-08T11:52:47;0.55;;;0.55;;
8399;SDS011;4237;47.030;15.396;2023-08-08T11:55:15;0.47;;;0.47;;
8399;SDS011;4237;47.030;15.396;2023-08-08T11:57:44;1.22;;;0.30;;
8399;SDS011;4237;47.030;15.396;2023-08-08T12:00:12;0.60;;;0.50;;
8399;SDS011;4237;47.030;15.396;2023-08-08T12:02:46;0.88;;;0.57;;
8399;SDS011;4237;47.030;15.396;2023-08-08T12:05:11;0.50;;;0.47;;
8399;SDS011;4237;47.030;15.396;2023-08-08T12:07:40;0.40;;;0.40;;
8399;SDS011;4237;47.030;15.396;2023-08-08T12:10:19;0.60;;;0.40;;
8399;SDS011;4237;47.030;15.396;2023-08-08T12:12:45;0.47;;;0.30;;
8399;SDS011;4237;47.030;15.396;2023-08-08T12:15:13;0.50;;;0.40;;
8399;SDS011;4237;47.030;15.396;2023-08-08T12:17:42;1.00;;;0.73;;
8399;SDS011;4237;47.030;15.396;2023-08-08T12:20:10;0.80;;;0.70;;
8399;SDS011;4237;47.030;15.396;2023-08-08T12:22:39;0.80;;;0.60;;
8399;SDS011;4237;47.030;15.396;2023-08-08T12:25:07;0.50;;;0.37;;
8399;SDS011;4237;47.030;15.396;2023-08-08T12:27:35;0.30;;;0.30;;
8399;SDS011;4237;47.030;15.396;2023-08-08T12:30:06;0.53;;;0.30;;
8399;SDS011;4237;47.030;15.396;2023-08-08T12:32:35;0.40;;;0.40;;
8399;SDS011;4237;47.030;15.396;2023-08-08T12:35:03;0.40;;;0.40;;
8399;SDS011;4237;47.030;15.396;2023-08-08T12:37:31;0.40;;;0.40;;
8399;SDS011;4237;47.030;15.396;2023-08-08T12:40:00;2.62;;;0.40;;
8399;SDS011;4237;47.030;15.396;2023-08-08T12:42:29;0.45;;;0.40;;
8399;SDS011;4237;47.030;15.396;2023-08-08T12:44:58;0.93;;;0.45;;
8399;SDS011;4237;47.030;15.396;2023-08-08T12:47:26;0.68;;;0.40;;
8399;SDS011;4237;47.030;15.396;2023-08-08T12:49:56;0.30;;;0.30;;
8399;SDS011;4237;47.030;15.396;2023-08-08T12:52:24;1.05;;;0.30;;
8399;SDS011;4237;47.030;15.396;2023-08-08T12:54:52;0.55;;;0.45;;
8399;SDS011;4237;47.030;15.396;2023-08-08T12:57:20;0.68;;;0.40;;
8399;SDS011;4237;47.030;15.396;2023-08-08T12:59:49;0.25;;;0.25;;
8399;SDS011;4237;47.030;15.396;2023-08-08T13:02:17;0.37;;;0.30;;
8399;SDS011;4237;47.030;15.396;2023-08-08T13:04:45;1.10;;;0.27;;
8399;SDS011;4237;47.030;15.396;2023-08-08T13:07:13;1.07;;;0.40;;
8399;SDS011;4237;47.030;15.396;2023-08-08T13:09:41;0.37;;;0.37;;
8399;SDS011;4237;47.030;15.396;2023-08-08T13:12:10;0.43;;;0.40;;
8399;SDS011;4237;47.030;15.396;2023-08-08T13:14:38;0.53;;;0.23;;
8399;SDS011;4237;47.030;15.396;2023-08-08T13:17:06;0.67;;;0.50;;
8399;SDS011;4237;47.030;15.396;2023-08-08T13:19:34;1.33;;;0.40;;
8399;SDS011;4237;47.030;15.396;2023-08-08T13:22:03;0.40;;;0.40;;
8399;SDS011;4237;47.030;15.396;2023-08-08T13:24:31;1.05;;;0.60;;
8399;SDS011;4237;47.030;15.396;2023-08-08T13:26:59;0.40;;;0.40;;
8399;SDS011;4237;47.030;15.396;2023-08-08T13:29:29;0.85;;;0.35;;
8399;SDS011;4237;47.030;15.396;2023-08-08T13:31:57;0.55;;;0.55;;
8399;SDS011;4237;47.030;15.396;2023-08-08T13:34:25;0.88;;;0.70;;
8399;SDS011;4237;47.030;15.396;2023-08-08T13:36:54;0.50;;;0.40;;
8399;SDS011;4237;47.030;15.396;2023-08-08T14:16:14;0.30;;;0.30;;
8399;SDS011;4237;47.030;15.396;2023-08-08T14:18:42;0.70;;;0.50;;
8399;SDS011;4237;47.030;15.396;2023-08-08T14:21:11;0.30;;;0.30;;
8399;SDS011;4237;47.030;15.396;2023-08-08T14:23:39;2.07;;;0.57;;
8399;SDS011;4237;47.030;15.396;2023-08-08T14:26:07;1.80;;;0.53;;
8399;SDS011;4237;47.030;15.396;2023-08-08T14:28:35;0.30;;;0.20;;
8399;SDS011;4237;47.030;15.396;2023-08-08T14:31:03;0.50;;;0.50;;
8399;SDS011;4237;47.030;15.396;2023-08-08T14:33:33;1.03;;;0.50;;
8399;SDS011;4237;47.030;15.396;2023-08-08T14:36:01;0.40;;;0.33;;
8399;SDS011;4237;47.030;15.396;2023-08-08T14:38:33;0.70;;;0.40;;
8399;SDS011;4237;47.030;15.396;2023-08-08T14:40:59;0.40;;;0.40;;
8399;SDS011;4237;47.030;15.396;2023-08-08T14:43:28;2.00;;;0.40;;
8399;SDS011;4237;47.030;15.396;2023-08-08T14:45:56;2.03;;;0.60;;
8399;SDS011;4237;47.030;15.396;2023-08-08T14:48:24;1.90;;;0.30;;
8399;SDS011;4237;47.030;15.396;2023-08-08T14:50:52;1.67;;;0.50;;
8399;SDS011;4237;47.030;15.396;2023-08-08T14:53:21;3.20;;;0.50;;
8399;SDS011;4237;47.030;15.396;2023-08-08T14:55:49;0.57;;;0.43;;
8399;SDS011;4237;47.030;15.396;2023-08-08T14:58:18;0.50;;;0.50;;
8399;SDS011;4237;47.030;15.396;2023-08-08T15:00:46;0.30;;;0.30;;
8399;SDS011;4237;47.030;15.396;2023-08-08T15:03:16;1.07;;;0.47;;
8399;SDS011;4237;47.030;15.396;2023-08-08T15:05:46;0.40;;;0.40;;
8399;SDS011;4237;47.030;15.396;2023-08-08T15:08:16;1.00;;;0.60;;
8399;SDS011;4237;47.030;15.396;2023-08-08T15:10:45;1.17;;;0.70;;
8399;SDS011;4237;47.030;15.396;2023-08-08T15:13:13;2.07;;;0.70;;
8399;SDS011;4237;47.030;15.396;2023-08-08T15:15:41;0.43;;;0.40;;
8399;SDS011;4237;47.030;15.396;2023-08-08T15:18:09;0.50;;;0.50;;
8399;SDS011;4237;47.030;15.396;2023-08-08T15:20:38;0.47;;;0.33;;
8399;SDS011;4237;47.030;15.396;2023-08-08T15:23:06;1.37;;;0.70;;
8399;SDS011;4237;47.030;15.396;2023-08-08T15:25:36;2.07;;;0.47;;
8399;SDS011;4237;47.030;15.396;2023-08-08T15:28:05;2.90;;;0.50;;
8399;SDS011;4237;47.030;15.396;2023-08-08T15:30:34;1.17;;;0.50;;
8399;SDS011;4237;47.030;15.396;2023-08-08T15:33:03;0.40;;;0.40;;
8399;SDS011;4237;47.030;15.396;2023-08-08T15:35:31;0.50;;;0.50;;
8399;SDS011;4237;47.030;15.396;2023-08-08T15:37:59;0.40;;;0.30;;
8399;SDS011;4237;47.030;15.396;2023-08-08T15:40:27;0.67;;;0.40;;
8399;SDS011;4237;47.030;15.396;2023-08-08T15:42:55;0.50;;;0.40;;
8399;SDS011;4237;47.030;15.396;2023-08-08T15:45:24;0.30;;;0.30;;
8399;SDS011;4237;47.030;15.396;2023-08-08T15:47:52;0.70;;;0.40;;
8399;SDS011;4237;47.030;15.396;2023-08-08T15:50:20;0.63;;;0.40;;
8399;SDS011;4237;47.030;15.396;2023-08-08T15:52:48;0.20;;;0.20;;
8399;SDS011;4237;47.030;15.396;2023-08-08T15:55:16;0.80;;;0.57;;
8399;SDS011;4237;47.030;15.396;2023-08-08T15:57:45;1.57;;;0.40;;
8399;SDS011;4237;47.030;15.396;2023-08-08T16:00:14;8.67;;;0.93;;
8399;SDS011;4237;47.030;15.396;2023-08-08T16:02:42;0.83;;;0.53;;
8399;SDS011;4237;47.030;15.396;2023-08-08T16:05:10;0.73;;;0.40;;
8399;SDS011;4237;47.030;15.396;2023-08-08T16:07:39;0.40;;;0.40;;
8399;SDS011;4237;47.030;15.396;2023-08-08T16:10:07;1.60;;;0.40;;
8399;SDS011;4237;47.030;15.396;2023-08-08T16:12:36;0.30;;;0.30;;
8399;SDS011;4237;47.030;15.396;2023-08-08T16:15:05;1.00;;;0.30;;
8399;SDS011;4237;47.030;15.396;2023-08-08T16:17:34;0.20;;;0.20;;
8399;SDS011;4237;47.030;15.396;2023-08-08T16:20:02;0.40;;;0.37;;
8399;SDS011;4237;47.030;15.396;2023-08-08T16:22:31;0.47;;;0.43;;
8399;SDS011;4237;47.030;15.396;2023-08-08T16:24:59;0.90;;;0.40;;
8399;SDS011;4237;47.030;15.396;2023-08-08T16:27:27;0.50;;;0.50;;
8399;SDS011;4237;47.030;15.396;2023-08-08T16:29:56;1.20;;;0.40;;
8399;SDS011;4237;47.030;15.396;2023-08-08T16:32:24;0.70;;;0.40;;
8399;SDS011;4237;47.030;15.396;2023-08-08T16:34:52;0.40;;;0.40;;
8399;SDS011;4237;47.030;15.396;2023-08-08T16:37:21;1.37;;;0.50;;
8399;SDS011;4237;47.030;15.396;2023-08-08T16:39:49;0.90;;;0.60;;
8399;SDS011;4237;47.030;15.396;2023-08-08T16:42:17;0.50;;;0.33;;